Main page
METAR-TAF:

METAR-TAF

Airports :

Saskatoon John G. Diefenbaker International Airport

Saskatoon, Saskatchewan, Canada

latitude: 52-10N, longitude: 106-41W, elevation: 501 m

Current weather observation

The report was made 1 hour and 9 minutes ago, at 11:00 UTC
Wind 8 kt from the Southeast
Temperature 16°C
Humidity 59%
Pressure 1018 hPa
Visibility: 24.1 km
Few clouds at a height of 25000 ft

METAR: CYXE 141100Z 13008KT 15SM FEW250 16/08 A3005 RMK CI1 SLP179 DENSITY ALT 2000FT

Time: 06:09 (12:09 UTC)

Forecast

The report was made 31 minutes ago, at 11:38 UTC
Forecast valid from 14 at 12 UTC to 15 at 12 UTC
Wind 10 kt from the Southeast
Visibility: 10 km
Few clouds at a height of 25000 ft
Becoming
from 14 at 17 UTC to 14 at 19 UTC
Wind 20 kt from the Southeast
From 15 at 0300 UTC
Wind 15 kt from the Southeast with gusts up to 25 kt
Visibility: 10 km
Few clouds at a height of 16000 ft

TAF: CYXE 141138Z 1412/1512 13010KT P6SM FEW250 BECMG 1417/1419 14020KT FM150300 14015G25KT P6SM FEW160 RMK NXT FCST BY 141800Z

Weather observations and forecasts of more than 4000 airports (METAR and TAF reports).

The available stations are represented by yellow and red dots on the map.

Hover mouse over dot to see the name of the station.

Then click to see weather observations and forecasts.

To change the map : click on the green buttons with a black cross to zoom in, on the green button with a dash to zoom out, or on the green arrows for adjacent maps.


METAR-TAF: